Time;durP1;ratioP1;P1;durP2;ratioP2;P2;SDS_P1;SDS_P2;PMS_P1;PMS_P2;Temp;Humidity;BMP_temperature;BMP_pressure;BME280_temperature;BME280_humidity;BME280_pressure;Samples;Min_cycle;Max_cycle;Signal;HPM_P1;HPM_P2
2022/10/22 00:04:49;;;;;;;3.10;2.90;;;17.60;48.00;;;;;;10323009;28;20700;-69
2022/10/22 00:09:53;;;;;;;5.03;3.10;;;17.60;47.90;;;;;;10322550;28;20600;-69
2022/10/22 00:14:57;;;;;;;4.77;3.47;;;17.60;47.90;;;;;;10324263;28;20353;-70
2022/10/22 00:20:01;;;;;;;3.83;3.43;;;17.60;48.30;;;;;;10321067;28;20778;-70
2022/10/22 00:25:04;;;;;;;3.30;3.00;;;17.60;48.10;;;;;;10321845;28;20639;-70
2022/10/22 00:30:10;;;;;;;3.50;3.20;;;17.50;48.10;;;;;;10325054;28;20227;-70
2022/10/22 00:35:13;;;;;;;3.30;3.10;;;17.60;48.50;;;;;;10326568;28;20223;-69
2022/10/22 00:40:16;;;;;;;4.50;2.93;;;17.60;48.20;;;;;;10324623;28;20227;-69
2022/10/22 00:45:24;;;;;;;3.20;2.90;;;17.50;48.20;;;;;;10321996;28;20285;-72
2022/10/22 00:50:31;;;;;;;4.10;3.30;;;17.50;48.80;;;;;;10320554;28;20582;-72
2022/10/22 00:55:35;;;;;;;3.47;3.17;;;17.50;48.70;;;;;;10322780;28;20301;-72
2022/10/22 01:00:39;;;;;;;4.37;3.30;;;17.50;48.60;;;;;;10317813;28;20254;-72
2022/10/22 01:05:44;;;;;;;4.60;3.23;;;17.50;49.00;;;;;;10320049;28;20231;-72
2022/10/22 01:10:57;;;;;;;4.43;3.13;;;17.50;49.20;;;;;;10321791;28;20313;-72
2022/10/22 01:16:09;;;;;;;3.60;3.20;;;17.40;49.40;;;;;;10320470;28;20231;-72
2022/10/22 01:21:23;;;;;;;3.63;3.10;;;17.50;49.90;;;;;;10320210;28;20227;-72
2022/10/22 01:26:33;;;;;;;2.93;2.63;;;17.40;50.10;;;;;;10319403;28;20227;-72
2022/10/22 01:31:43;;;;;;;3.73;2.73;;;17.40;50.10;;;;;;10319786;28;20256;-73
2022/10/22 01:36:48;;;;;;;3.50;3.20;;;17.40;50.30;;;;;;10320474;28;20231;-72
2022/10/22 01:41:55;;;;;;;3.60;3.00;;;17.50;49.70;;;;;;10317270;28;20286;-72
2022/10/22 01:47:10;;;;;;;5.40;3.10;;;17.40;50.20;;;;;;10319961;28;20238;-72
2022/10/22 01:52:25;;;;;;;2.83;2.60;;;17.50;50.50;;;;;;10318848;28;20233;-72
2022/10/22 01:57:36;;;;;;;3.47;2.73;;;17.40;50.30;;;;;;10319811;28;20230;-72
2022/10/22 02:02:48;;;;;;;2.97;2.77;;;17.50;50.50;;;;;;10319287;28;20314;-72
2022/10/22 02:07:57;;;;;;;3.33;2.70;;;17.50;50.60;;;;;;10315486;28;20775;-72
2022/10/22 02:13:03;;;;;;;2.83;2.63;;;17.40;50.40;;;;;;10319733;28;20243;-72
2022/10/22 02:18:09;;;;;;;3.33;2.80;;;17.40;50.30;;;;;;10313996;28;20703;-72
2022/10/22 02:23:13;;;;;;;3.30;2.63;;;17.40;50.90;;;;;;10317336;28;20230;-72
2022/10/22 02:28:23;;;;;;;2.60;2.40;;;17.40;50.40;;;;;;10318779;28;20278;-73
2022/10/22 02:33:30;;;;;;;3.87;2.60;;;17.40;51.20;;;;;;10316801;28;20281;-69
2022/10/22 02:38:35;;;;;;;3.00;2.70;;;17.40;51.20;;;;;;10316298;28;20233;-69
2022/10/22 02:43:42;;;;;;;2.57;2.37;;;17.40;50.90;;;;;;10317620;28;20660;-69
2022/10/22 02:48:47;;;;;;;2.93;2.40;;;17.40;51.50;;;;;;10315594;28;20645;-69
2022/10/22 02:53:50;;;;;;;3.17;2.40;;;17.50;51.30;;;;;;10318583;28;20828;-69
2022/10/22 02:58:53;;;;;;;3.13;2.40;;;17.50;51.10;;;;;;10318378;28;20301;-69
2022/10/22 03:03:58;;;;;;;3.47;3.07;;;17.40;51.20;;;;;;10318263;28;20227;-69
2022/10/22 03:09:01;;;;;;;2.50;2.30;;;17.40;51.90;;;;;;10316373;28;20239;-69
2022/10/22 03:14:04;;;;;;;4.07;2.50;;;17.50;51.60;;;;;;10316770;28;21146;-70
2022/10/22 03:19:08;;;;;;;3.17;2.87;;;17.50;51.70;;;;;;10317919;28;20223;-69
2022/10/22 03:24:14;;;;;;;2.83;2.63;;;17.50;52.30;;;;;;10315747;28;20604;-69
2022/10/22 03:29:18;;;;;;;2.73;2.53;;;17.50;52.20;;;;;;10317645;28;20293;-69
2022/10/22 03:34:22;;;;;;;4.00;2.70;;;17.50;51.90;;;;;;10317626;28;20226;-69
2022/10/22 03:39:26;;;;;;;3.83;2.67;;;17.50;52.50;;;;;;10315515;28;20237;-69
2022/10/22 03:44:30;;;;;;;2.53;2.33;;;17.50;52.00;;;;;;10316333;28;20285;-69
2022/10/22 03:49:34;;;;;;;2.80;2.60;;;17.50;52.20;;;;;;10314708;28;20650;-69
2022/10/22 03:54:38;;;;;;;2.57;2.37;;;17.50;52.50;;;;;;10317952;28;20227;-69
2022/10/22 03:59:44;;;;;;;2.57;2.37;;;17.50;52.10;;;;;;10315182;28;20234;-69
2022/10/22 04:04:49;;;;;;;2.37;2.17;;;17.50;52.30;;;;;;10322439;28;20782;-69
2022/10/22 04:09:52;;;;;;;3.00;2.70;;;17.50;52.10;;;;;;10321894;28;20226;-69
2022/10/22 04:14:55;;;;;;;2.33;2.13;;;17.40;51.80;;;;;;10323829;28;20235;-69
2022/10/22 04:19:59;;;;;;;2.13;2.03;;;17.40;51.60;;;;;;10321908;28;20227;-69
2022/10/22 04:25:03;;;;;;;1.80;1.70;;;17.30;51.90;;;;;;10325441;28;20238;-69
2022/10/22 04:30:08;;;;;;;1.50;1.40;;;17.20;51.50;;;;;;10324050;28;20226;-70
2022/10/22 04:35:12;;;;;;;1.43;1.33;;;17.20;51.60;;;;;;10325502;28;20234;-70
2022/10/22 04:40:16;;;;;;;1.93;1.30;;;17.10;51.50;;;;;;10323706;28;20235;-70
2022/10/22 04:45:19;;;;;;;2.40;1.47;;;17.10;51.20;;;;;;10324210;28;20293;-70
2022/10/22 04:50:23;;;;;;;1.60;1.40;;;17.10;51.10;;;;;;10325138;28;20238;-69
2022/10/22 04:55:26;;;;;;;1.50;1.37;;;17.00;51.40;;;;;;10324188;28;20629;-69
2022/10/22 05:00:29;;;;;;;1.50;1.40;;;17.00;51.40;;;;;;10323081;28;20670;-70
2022/10/22 05:05:34;;;;;;;1.90;1.70;;;17.00;51.30;;;;;;10324600;28;20227;-70
2022/10/22 05:10:37;;;;;;;1.67;1.40;;;17.00;51.30;;;;;;10323413;28;20227;-70
2022/10/22 05:15:40;;;;;;;2.07;1.87;;;17.00;50.90;;;;;;10319374;28;20227;-70
2022/10/22 05:20:44;;;;;;;3.47;2.37;;;17.00;50.80;;;;;;10323923;28;20640;-70
2022/10/22 05:25:47;;;;;;;3.40;1.70;;;17.00;51.10;;;;;;10320972;28;20222;-70
2022/10/22 05:30:55;;;;;;;3.40;2.70;;;17.00;50.80;;;;;;10322298;28;20716;-70
2022/10/22 05:36:00;;;;;;;2.77;2.57;;;17.00;51.40;;;;;;10318392;28;20230;-71
2022/10/22 05:41:06;;;;;;;2.40;2.20;;;17.00;51.20;;;;;;10321772;28;20227;-71
2022/10/22 05:46:11;;;;;;;3.30;2.00;;;17.00;51.20;;;;;;10321167;28;20269;-72
2022/10/22 05:51:15;;;;;;;2.80;2.60;;;17.00;51.00;;;;;;10316100;28;20653;-72
2022/10/22 05:56:18;;;;;;;2.90;2.70;;;17.00;51.00;;;;;;10321034;28;20226;-72
2022/10/22 06:01:23;;;;;;;2.67;2.40;;;17.00;50.70;;;;;;10317777;28;20247;-72
2022/10/22 06:06:32;;;;;;;5.70;2.40;;;17.00;50.90;;;;;;10323042;28;20495;-72
2022/10/22 06:11:36;;;;;;;6.80;5.40;;;16.90;51.20;;;;;;10321922;28;20234;-72
2022/10/22 06:16:39;;;;;;;4.63;3.40;;;16.90;50.90;;;;;;10318278;28;20235;-72
2022/10/22 06:21:44;;;;;;;2.60;2.30;;;16.90;50.90;;;;;;10320085;28;20930;-72
2022/10/22 06:26:50;;;;;;;3.00;2.70;;;16.90;51.30;;;;;;10319461;28;20240;-72
2022/10/22 06:31:53;;;;;;;2.93;2.47;;;16.90;51.60;;;;;;10319859;28;20234;-72
2022/10/22 06:36:57;;;;;;;4.13;3.40;;;16.90;51.20;;;;;;10322755;28;20612;-72
2022/10/22 06:42:01;;;;;;;3.50;3.10;;;17.00;51.40;;;;;;10325353;28;20231;-72
2022/10/22 06:47:04;;;;;;;3.30;3.00;;;17.00;51.00;;;;;;10320011;28;20251;-72
2022/10/22 06:52:09;;;;;;;3.70;3.40;;;17.00;50.70;;;;;;10317081;28;20289;-72
2022/10/22 06:57:12;;;;;;;4.43;4.03;;;17.00;51.00;;;;;;10315987;28;20242;-72
2022/10/22 07:02:15;;;;;;;3.90;3.57;;;17.00;50.70;;;;;;10317315;28;20230;-72
2022/10/22 07:07:19;;;;;;;3.20;2.17;;;17.00;50.80;;;;;;10313246;28;20309;-72
2022/10/22 07:12:23;;;;;;;2.37;1.60;;;17.00;51.00;;;;;;10320065;28;20692;-72
2022/10/22 07:17:26;;;;;;;2.13;1.50;;;17.00;50.80;;;;;;10320805;28;20231;-72
2022/10/22 07:22:31;;;;;;;2.20;1.80;;;16.90;50.90;;;;;;10307551;28;20230;-72
2022/10/22 07:27:34;;;;;;;1.97;1.87;;;16.90;51.10;;;;;;10308106;28;20230;-72
2022/10/22 07:32:37;;;;;;;1.47;1.20;;;16.90;50.90;;;;;;10309590;28;20231;-73
2022/10/22 07:37:42;;;;;;;1.17;1.10;;;16.90;50.90;;;;;;10311394;28;20296;-73
2022/10/22 07:42:45;;;;;;;1.47;0.90;;;16.90;51.30;;;;;;10313835;28;20843;-73
2022/10/22 07:47:49;;;;;;;1.30;1.20;;;16.90;51.30;;;;;;10313812;28;20716;-73
2022/10/22 07:52:53;;;;;;;1.53;1.20;;;16.90;51.40;;;;;;10319211;28;20230;-73
2022/10/22 07:58:00;;;;;;;1.70;1.47;;;16.90;51.50;;;;;;10312721;28;20486;-72
2022/10/22 08:03:03;;;;;;;1.90;1.63;;;16.90;51.60;;;;;;10314986;28;20289;-72
2022/10/22 08:08:08;;;;;;;2.27;1.40;;;17.00;51.70;;;;;;10312383;28;20230;-72
2022/10/22 08:13:11;;;;;;;1.50;1.40;;;17.00;51.90;;;;;;10313658;28;20606;-72
2022/10/22 08:18:14;;;;;;;0.97;0.90;;;17.10;52.10;;;;;;10318397;28;20242;-72
2022/10/22 08:23:19;;;;;;;1.97;1.80;;;17.10;51.80;;;;;;10319291;28;20227;-71
2022/10/22 08:28:28;;;;;;;1.10;1.10;;;17.10;52.00;;;;;;10319498;28;20223;-71
2022/10/22 08:33:31;;;;;;;2.73;1.20;;;17.20;51.70;;;;;;10318007;28;20226;-72
2022/10/22 08:38:36;;;;;;;0.93;0.93;;;17.20;51.70;;;;;;10320865;28;20717;-74
2022/10/22 08:48:58;;;;;;;0.90;0.90;;;17.30;51.10;;;;;;2997295;26;20600;-79
2022/10/22 08:54:21;;;;;;;2.33;1.10;;;17.40;51.30;;;;;;10495517;28;21524;-78
2022/10/22 08:59:29;;;;;;;1.10;1.10;;;17.40;51.30;;;;;;10477394;28;20239;-77
2022/10/22 09:04:40;;;;;;;0.90;0.90;;;17.40;51.30;;;;;;10484414;28;20586;-77
2022/10/22 09:09:51;;;;;;;0.93;0.93;;;17.40;51.50;;;;;;10491831;28;20232;-77
2022/10/22 09:14:55;;;;;;;1.53;1.20;;;17.50;51.90;;;;;;10488471;28;20235;-77
2022/10/22 09:20:08;;;;;;;1.00;1.00;;;17.50;51.20;;;;;;10480798;28;20244;-77
2022/10/22 09:25:19;;;;;;;1.40;0.93;;;17.60;51.50;;;;;;10489379;28;20240;-78
2022/10/22 09:30:25;;;;;;;0.90;0.90;;;17.60;51.50;;;;;;10485414;28;20286;-77
2022/10/22 09:35:28;;;;;;;0.90;0.90;;;17.70;51.20;;;;;;10470076;28;21266;-78
2022/10/22 09:40:41;;;;;;;1.87;1.10;;;17.70;51.30;;;;;;10486746;28;20232;-77
2022/10/22 09:45:45;;;;;;;1.07;0.80;;;17.70;51.20;;;;;;10484711;28;20233;-78
2022/10/22 09:50:54;;;;;;;0.80;0.80;;;17.80;51.00;;;;;;10494143;28;20344;-79
2022/10/22 09:56:01;;;;;;;0.83;0.83;;;17.80;51.10;;;;;;10497506;28;20247;-79
2022/10/22 10:01:04;;;;;;;0.80;0.80;;;17.90;51.50;;;;;;10490445;28;20694;-79
2022/10/22 10:06:08;;;;;;;1.17;0.90;;;18.00;51.70;;;;;;10493922;28;20232;-80
2022/10/22 10:11:17;;;;;;;0.80;0.80;;;18.00;51.60;;;;;;10495492;28;20250;-80
2022/10/22 10:16:50;;;;;;;0.77;0.77;;;18.10;51.80;;;;;;10484234;28;20792;-80
2022/10/22 10:22:03;;;;;;;2.20;0.80;;;18.30;51.60;;;;;;10483096;28;20247;-79
2022/10/22 10:27:13;;;;;;;0.90;0.90;;;18.40;52.00;;;;;;10482766;28;20256;-80
2022/10/22 10:32:39;;;;;;;1.93;0.70;;;18.40;51.40;;;;;;10467862;28;20988;-80
2022/10/22 10:37:53;;;;;;;2.73;0.87;;;18.50;51.40;;;;;;10470654;28;20227;-79
2022/10/22 10:43:02;;;;;;;0.90;0.90;;;18.50;51.80;;;;;;10476511;28;20255;-79
2022/10/22 10:48:35;;;;;;;1.00;1.00;;;18.60;51.20;;;;;;10479493;28;20993;-80
2022/10/22 10:53:56;;;;;;;1.10;1.00;;;18.60;51.60;;;;;;10489251;28;20271;-80
2022/10/22 10:59:09;;;;;;;1.60;1.10;;;18.50;51.90;;;;;;10481293;28;20227;-80
2022/10/22 11:04:34;;;;;;;0.83;0.80;;;18.50;51.80;;;;;;10480106;28;20248;-80
2022/10/22 11:09:42;;;;;;;0.73;0.73;;;18.50;52.00;;;;;;10482892;28;20225;-80
2022/10/22 11:14:54;;;;;;;1.40;1.30;;;18.50;52.50;;;;;;10485682;28;20239;-80
2022/10/22 11:20:03;;;;;;;3.30;1.70;;;18.50;52.20;;;;;;10492026;28;20242;-80
2022/10/22 11:25:16;;;;;;;1.67;1.40;;;18.50;52.40;;;;;;10483766;28;20224;-80
2022/10/22 11:30:22;;;;;;;1.20;1.10;;;18.60;53.00;;;;;;10482723;28;20828;-80
2022/10/22 11:35:28;;;;;;;1.10;1.00;;;18.70;53.10;;;;;;10478175;28;20239;-79
2022/10/22 11:40:36;;;;;;;1.03;1.00;;;18.70;52.70;;;;;;10479550;28;20235;-79
2022/10/22 11:45:42;;;;;;;2.10;1.10;;;18.90;52.60;;;;;;10483273;28;20265;-80
2022/10/22 11:50:49;;;;;;;1.13;1.13;;;19.00;52.50;;;;;;10481116;28;20273;-80
2022/10/22 11:55:54;;;;;;;1.40;1.30;;;19.10;52.10;;;;;;10485688;28;20270;-80
2022/10/22 12:01:27;;;;;;;1.40;1.30;;;19.20;51.90;;;;;;10479177;28;20228;-81
2022/10/22 12:06:54;;;;;;;1.40;1.30;;;19.40;51.50;;;;;;10484589;28;20225;-83
2022/10/22 12:12:14;;;;;;;2.20;1.40;;;19.40;51.90;;;;;;10402531;22;20225;-72
2022/10/22 12:17:21;;;;;;;1.70;1.53;;;19.50;51.80;;;;;;10382818;28;20225;-72
2022/10/22 12:22:29;;;;;;;1.30;1.30;;;19.60;51.20;;;;;;10376985;28;20241;-72
2022/10/22 12:27:36;;;;;;;1.50;1.40;;;19.70;50.90;;;;;;10385117;28;20291;-72
2022/10/22 12:32:41;;;;;;;1.43;1.30;;;19.70;50.50;;;;;;10392803;28;20856;-72
2022/10/22 12:37:44;;;;;;;1.30;1.20;;;19.80;50.80;;;;;;10386155;28;20237;-72
2022/10/22 12:42:52;;;;;;;1.60;1.50;;;19.90;50.50;;;;;;10385201;28;20237;-72
2022/10/22 12:48:00;;;;;;;1.50;1.40;;;19.90;50.40;;;;;;10392474;28;20245;-72
2022/10/22 12:53:05;;;;;;;1.20;1.20;;;19.90;49.60;;;;;;10386174;28;20267;-70
2022/10/22 12:58:08;;;;;;;1.20;1.10;;;20.00;49.60;;;;;;10384397;28;20232;-69
2022/10/22 13:03:26;;;;;;;1.50;1.10;;;20.00;49.60;;;;;;10385869;28;20641;-70
2022/10/22 13:08:29;;;;;;;2.60;1.30;;;20.10;49.20;;;;;;10385202;28;20315;-69
2022/10/22 13:13:40;;;;;;;1.37;1.10;;;20.20;49.60;;;;;;10383294;28;20249;-69
2022/10/22 13:18:46;;;;;;;0.80;0.80;;;20.30;49.00;;;;;;10380235;28;20264;-69
2022/10/22 13:23:54;;;;;;;1.00;0.90;;;20.30;49.00;;;;;;10382554;28;20240;-70
2022/10/22 13:28:59;;;;;;;1.07;0.97;;;20.30;48.60;;;;;;10377004;28;20810;-70
2022/10/22 13:34:08;;;;;;;1.00;1.00;;;20.40;49.10;;;;;;10378683;28;20232;-70
2022/10/22 13:39:17;;;;;;;1.93;1.10;;;20.50;49.20;;;;;;10382230;28;20320;-69
2022/10/22 13:44:21;;;;;;;0.90;0.90;;;20.60;49.30;;;;;;10379380;28;20234;-69
2022/10/22 13:49:25;;;;;;;2.20;0.80;;;20.60;48.80;;;;;;10384611;28;20716;-68
2022/10/22 13:54:28;;;;;;;0.93;0.90;;;20.70;47.40;;;;;;10381185;28;20815;-70
2022/10/22 13:59:31;;;;;;;1.70;1.10;;;20.70;47.70;;;;;;10383330;28;20238;-68
2022/10/22 14:04:39;;;;;;;1.03;0.93;;;20.70;47.70;;;;;;10379024;28;20226;-70
2022/10/22 14:09:42;;;;;;;0.80;0.80;;;20.70;46.30;;;;;;10379754;28;20237;-70
2022/10/22 14:14:45;;;;;;;1.10;0.90;;;20.70;47.10;;;;;;10381359;28;20805;-70
2022/10/22 14:19:50;;;;;;;0.97;0.97;;;20.70;47.30;;;;;;10381801;28;20257;-70
2022/10/22 14:24:53;;;;;;;1.57;0.80;;;20.70;46.70;;;;;;10378729;28;20233;-71
2022/10/22 14:29:56;;;;;;;0.90;0.90;;;20.80;47.30;;;;;;10386232;28;20234;-71
2022/10/22 14:35:03;;;;;;;1.63;0.97;;;20.80;47.20;;;;;;10379873;28;20344;-71
2022/10/22 14:40:07;;;;;;;1.73;0.90;;;20.80;46.60;;;;;;10387982;28;20234;-71
2022/10/22 14:45:15;;;;;;;1.47;0.90;;;20.80;46.70;;;;;;10384104;28;20647;-71
2022/10/22 14:50:20;;;;;;;0.83;0.83;;;20.80;46.90;;;;;;10383208;28;20234;-73
2022/10/22 14:55:25;;;;;;;2.87;1.10;;;20.80;46.60;;;;;;10378033;28;20242;-72
2022/10/22 15:00:28;;;;;;;1.77;1.00;;;20.80;47.00;;;;;;10379082;28;20237;-72
2022/10/22 15:05:32;;;;;;;1.13;0.97;;;20.80;47.50;;;;;;10378478;28;20229;-71
2022/10/22 15:10:35;;;;;;;1.63;1.10;;;20.90;46.30;;;;;;10376138;28;20242;-71
2022/10/22 15:15:40;;;;;;;1.10;1.00;;;20.90;46.70;;;;;;10376752;28;20225;-70
2022/10/22 15:20:44;;;;;;;1.73;1.10;;;20.90;46.30;;;;;;10383319;28;20225;-71
2022/10/22 15:25:48;;;;;;;0.80;0.80;;;20.90;46.10;;;;;;10377694;28;20228;-70
2022/10/22 15:30:55;;;;;;;1.83;0.97;;;20.80;46.40;;;;;;10382010;28;20229;-71
2022/10/22 15:36:08;;;;;;;1.37;1.07;;;20.90;46.10;;;;;;10378152;28;20715;-70
2022/10/22 15:41:12;;;;;;;1.57;1.47;;;20.90;46.30;;;;;;10377082;28;20915;-71
2022/10/22 15:46:18;;;;;;;5.10;4.27;;;20.80;46.10;;;;;;10386011;28;20238;-71
2022/10/22 15:51:22;;;;;;;4.37;3.97;;;20.80;46.00;;;;;;10379325;28;20238;-71
2022/10/22 15:56:28;;;;;;;3.70;3.40;;;20.70;46.10;;;;;;10378512;28;20230;-71
2022/10/22 16:01:33;;;;;;;2.60;2.40;;;20.60;46.00;;;;;;10381587;28;20600;-71
2022/10/22 16:06:40;;;;;;;3.63;2.03;;;20.50;46.10;;;;;;10385698;28;20720;-71
2022/10/22 16:11:44;;;;;;;2.53;2.33;;;20.40;45.90;;;;;;10385730;28;20291;-71
2022/10/22 16:16:49;;;;;;;3.17;2.80;;;20.40;46.20;;;;;;10386210;28;20316;-71
2022/10/22 16:21:55;;;;;;;4.37;3.90;;;20.30;46.30;;;;;;10384791;28;20291;-71
2022/10/22 16:26:59;;;;;;;4.83;4.33;;;20.20;46.10;;;;;;10387853;28;20234;-71
2022/10/22 16:32:02;;;;;;;3.40;3.07;;;20.10;46.20;;;;;;10380911;28;20259;-72
2022/10/22 16:37:08;;;;;;;3.77;2.63;;;20.00;45.90;;;;;;10378106;28;21190;-72
2022/10/22 16:42:12;;;;;;;3.83;3.20;;;20.00;45.70;;;;;;10384615;28;20257;-72
2022/10/22 16:47:15;;;;;;;4.83;3.40;;;19.90;45.70;;;;;;10387425;28;20241;-72
2022/10/22 16:52:19;;;;;;;5.13;4.63;;;19.80;45.50;;;;;;10393473;28;20237;-72
2022/10/22 16:57:23;;;;;;;7.00;5.93;;;19.60;45.40;;;;;;10389699;28;20245;-70
2022/10/22 17:02:26;;;;;;;5.87;5.27;;;19.60;45.60;;;;;;10386173;28;20861;-70
2022/10/22 17:07:30;;;;;;;5.50;5.00;;;19.50;45.40;;;;;;10384667;28;20226;-70
2022/10/22 17:12:34;;;;;;;20.60;18.00;;;19.40;45.40;;;;;;10381802;28;20233;-70
2022/10/22 17:17:37;;;;;;;32.57;27.57;;;19.30;45.60;;;;;;10387581;28;20723;-70
2022/10/22 17:22:42;;;;;;;27.53;23.67;;;19.20;45.60;;;;;;10390741;28;20226;-70
2022/10/22 17:27:46;;;;;;;21.00;18.80;;;19.10;45.60;;;;;;10388782;28;20741;-70
2022/10/22 17:32:49;;;;;;;16.73;14.87;;;19.00;45.50;;;;;;10382939;28;20641;-70
2022/10/22 17:37:53;;;;;;;9.13;8.23;;;19.00;45.60;;;;;;10387054;28;20236;-69
2022/10/22 17:42:57;;;;;;;8.07;7.30;;;18.90;45.20;;;;;;10379736;28;20229;-69
2022/10/22 17:48:00;;;;;;;8.27;7.47;;;18.80;45.10;;;;;;10387062;28;20261;-69
2022/10/22 17:53:04;;;;;;;8.10;6.73;;;18.70;45.00;;;;;;10384419;28;20234;-69
2022/10/22 17:58:07;;;;;;;8.33;5.80;;;18.60;44.90;;;;;;10379489;28;20238;-69
2022/10/22 18:03:11;;;;;;;5.20;4.80;;;18.50;45.40;;;;;;10390600;28;20237;-68
2022/10/22 18:08:15;;;;;;;5.80;5.17;;;18.30;45.50;;;;;;10380319;28;20627;-69
2022/10/22 18:13:19;;;;;;;6.67;5.83;;;18.30;45.40;;;;;;10384918;28;20332;-68
2022/10/22 18:18:22;;;;;;;7.90;7.10;;;18.20;45.30;;;;;;10385154;28;20240;-69
2022/10/22 18:23:28;;;;;;;7.37;6.67;;;18.20;45.30;;;;;;10383954;28;20288;-69
2022/10/22 18:28:33;;;;;;;6.87;6.20;;;18.10;45.10;;;;;;10382600;28;20253;-68
2022/10/22 18:33:37;;;;;;;10.93;6.37;;;18.00;45.20;;;;;;10378650;28;20303;-68
2022/10/22 18:38:41;;;;;;;6.40;5.80;;;18.00;45.20;;;;;;10385764;28;20255;-68
2022/10/22 18:43:44;;;;;;;6.97;6.37;;;17.90;45.00;;;;;;10382934;28;20581;-68
2022/10/22 18:48:50;;;;;;;6.40;5.80;;;17.80;45.10;;;;;;10381779;28;20783;-68
2022/10/22 18:53:54;;;;;;;6.63;5.10;;;17.80;45.10;;;;;;10380195;28;20700;-69
2022/10/22 18:59:19;;;;;;;6.40;5.83;;;17.70;44.80;;;;;;10382296;28;20257;-69
2022/10/22 19:04:22;;;;;;;7.10;6.40;;;17.60;44.80;;;;;;10379337;28;20233;-69
2022/10/22 19:09:27;;;;;;;6.10;5.10;;;17.50;45.00;;;;;;10385745;28;20250;-69
2022/10/22 19:14:31;;;;;;;6.70;5.80;;;17.50;45.10;;;;;;10382257;28;20242;-69
2022/10/22 19:19:35;;;;;;;5.90;5.30;;;17.40;45.20;;;;;;10380309;28;20234;-69
2022/10/22 19:24:39;;;;;;;7.43;6.70;;;17.30;45.20;;;;;;10373211;28;20226;-69
2022/10/22 19:29:43;;;;;;;6.50;5.90;;;17.30;45.00;;;;;;10372714;28;20782;-68
2022/10/22 19:34:47;;;;;;;6.13;5.63;;;17.20;45.00;;;;;;10378993;28;20245;-69
2022/10/22 19:39:51;;;;;;;5.10;4.60;;;17.20;45.00;;;;;;10383090;28;20231;-68
2022/10/22 19:44:54;;;;;;;6.17;4.27;;;17.10;44.70;;;;;;10381352;28;20283;-69
2022/10/22 19:49:57;;;;;;;6.83;4.50;;;17.00;44.90;;;;;;10381219;28;20237;-68
2022/10/22 19:55:02;;;;;;;5.67;4.10;;;16.90;44.80;;;;;;10381971;28;20230;-68
2022/10/22 20:00:06;;;;;;;4.07;3.77;;;16.90;44.90;;;;;;10379763;28;20233;-69
2022/10/22 20:05:10;;;;;;;4.47;3.73;;;16.80;45.10;;;;;;10378168;28;20721;-69
2022/10/22 20:10:15;;;;;;;5.77;4.23;;;16.70;45.10;;;;;;10383052;28;20316;-69
2022/10/22 20:15:20;;;;;;;5.03;4.20;;;16.70;45.10;;;;;;10384225;28;20234;-69
2022/10/22 20:20:23;;;;;;;5.60;4.10;;;16.60;45.20;;;;;;10382111;28;20240;-69
2022/10/22 20:25:30;;;;;;;5.80;4.60;;;16.60;45.10;;;;;;10370108;28;20230;-69
2022/10/22 20:30:33;;;;;;;6.23;5.40;;;16.50;45.00;;;;;;10368660;28;20239;-69
2022/10/22 20:35:36;;;;;;;5.90;5.27;;;16.50;45.10;;;;;;10370601;28;20238;-68
2022/10/22 20:40:41;;;;;;;5.87;5.30;;;16.40;44.70;;;;;;10367904;28;20238;-69
2022/10/22 20:45:44;;;;;;;4.60;4.20;;;16.30;45.10;;;;;;10363188;28;20989;-69
2022/10/22 20:50:47;;;;;;;4.80;4.30;;;16.20;45.40;;;;;;10371134;28;20833;-69
2022/10/22 20:55:54;;;;;;;4.57;4.07;;;16.10;45.30;;;;;;10365204;28;20238;-69
2022/10/22 21:01:00;;;;;;;4.13;3.83;;;16.10;45.30;;;;;;10363039;28;20233;-68
2022/10/22 21:06:05;;;;;;;4.40;4.00;;;16.10;45.30;;;;;;10371669;28;20348;-69
2022/10/22 21:11:09;;;;;;;4.03;3.73;;;16.00;45.20;;;;;;10364717;28;20320;-69
2022/10/22 21:16:15;;;;;;;4.13;3.60;;;16.00;45.20;;;;;;10379944;28;20238;-69
2022/10/22 21:21:18;;;;;;;7.87;7.17;;;16.00;45.20;;;;;;10374066;28;20225;-69
2022/10/22 21:26:23;;;;;;;8.87;8.00;;;15.90;45.10;;;;;;10372792;28;20316;-69
2022/10/22 21:31:26;;;;;;;7.23;6.63;;;15.90;45.10;;;;;;10369794;28;20300;-69
2022/10/22 21:36:29;;;;;;;8.47;6.53;;;15.80;45.00;;;;;;10365168;28;20240;-69
2022/10/22 21:41:36;;;;;;;5.50;5.07;;;15.80;45.00;;;;;;10363998;28;20295;-68
2022/10/22 21:46:39;;;;;;;5.53;4.87;;;15.80;45.00;;;;;;10370060;28;20244;-69
2022/10/22 21:51:43;;;;;;;4.90;4.50;;;15.70;45.00;;;;;;10376691;28;20229;-69
2022/10/22 21:56:48;;;;;;;5.30;4.80;;;15.70;45.00;;;;;;10377225;28;20230;-69
2022/10/22 22:01:52;;;;;;;5.00;4.40;;;15.60;44.90;;;;;;10368395;28;20226;-69
2022/10/22 22:06:55;;;;;;;6.70;5.50;;;15.50;44.80;;;;;;10371129;28;20238;-69
2022/10/22 22:11:59;;;;;;;4.40;4.10;;;15.50;45.10;;;;;;10370201;28;20238;-69
2022/10/22 22:17:02;;;;;;;3.90;3.60;;;15.40;45.20;;;;;;10372185;28;20749;-69
2022/10/22 22:22:06;;;;;;;3.70;3.40;;;15.40;45.30;;;;;;10372037;28;20708;-69
2022/10/22 22:27:10;;;;;;;4.07;3.70;;;15.30;45.50;;;;;;10374632;28;20236;-69
2022/10/22 22:32:14;;;;;;;3.73;3.37;;;15.30;45.50;;;;;;10374171;28;20238;-69
2022/10/22 22:37:17;;;;;;;4.10;3.57;;;15.30;45.60;;;;;;10371025;28;20233;-69
2022/10/22 22:42:22;;;;;;;3.97;3.43;;;15.30;45.80;;;;;;10377477;28;20280;-69
2022/10/22 22:47:25;;;;;;;4.37;3.90;;;15.30;45.80;;;;;;10368263;28;20870;-69
2022/10/22 22:52:28;;;;;;;4.07;3.67;;;15.20;45.60;;;;;;10368548;28;20290;-69
2022/10/22 22:57:34;;;;;;;4.23;3.40;;;15.20;45.50;;;;;;10372235;28;20237;-69
2022/10/22 23:02:37;;;;;;;4.20;3.80;;;15.20;45.60;;;;;;10372400;28;20229;-69
2022/10/22 23:07:41;;;;;;;3.77;3.43;;;15.20;45.50;;;;;;10374838;28;20258;-69
2022/10/22 23:12:46;;;;;;;3.83;3.53;;;15.20;45.70;;;;;;10371809;28;20238;-69
2022/10/22 23:17:49;;;;;;;4.60;3.37;;;15.20;45.90;;;;;;10375367;28;20225;-69
2022/10/22 23:22:52;;;;;;;5.07;4.03;;;15.10;45.70;;;;;;10369455;28;20225;-69
2022/10/22 23:27:56;;;;;;;3.83;3.53;;;15.20;45.90;;;;;;10364793;28;20241;-69
2022/10/22 23:32:59;;;;;;;4.00;3.60;;;15.10;45.90;;;;;;10366715;28;20704;-69
2022/10/22 23:38:02;;;;;;;3.80;3.50;;;15.10;45.80;;;;;;10372700;28;20235;-69
2022/10/22 23:43:07;;;;;;;3.83;3.53;;;15.10;45.80;;;;;;10376347;28;20241;-69
2022/10/22 23:48:10;;;;;;;3.57;3.27;;;15.10;45.80;;;;;;10372314;28;20756;-69
2022/10/22 23:53:13;;;;;;;5.23;3.70;;;15.10;45.80;;;;;;10369671;28;20238;-69
2022/10/22 23:58:18;;;;;;;3.67;3.37;;;15.10;45.80;;;;;;10366814;28;20234;-69
